createdAt,value
2022-12-17T00:05:25.975Z,-0.22
2022-12-17T00:11:06.829Z,-1.74
2022-12-17T00:16:48.439Z,-0.16
2022-12-17T00:22:30.171Z,1.42
2022-12-17T00:28:11.530Z,1.88
2022-12-17T00:33:52.390Z,-0.15
2022-12-17T00:39:33.119Z,-1.64
2022-12-17T00:45:13.649Z,0.26
2022-12-17T00:50:54.820Z,1.87
2022-12-17T00:56:38.666Z,2.63
2022-12-17T01:02:20.365Z,2.97
2022-12-17T01:08:01.651Z,1.52
2022-12-17T01:13:42.095Z,-1.00
2022-12-17T01:19:23.411Z,-2.20
2022-12-17T01:25:06.085Z,-0.48
2022-12-17T01:30:47.024Z,1.04
2022-12-17T01:36:28.312Z,1.41
2022-12-17T01:42:09.890Z,-0.44
2022-12-17T01:47:51.799Z,-1.00
2022-12-17T01:53:32.436Z,0.53
2022-12-17T01:59:13.965Z,1.26
2022-12-17T02:04:55.631Z,0.97
2022-12-17T02:10:42.845Z,-1.06
2022-12-17T02:16:27.906Z,-0.22
2022-12-17T02:22:09.141Z,0.85
2022-12-17T02:28:04.242Z,1.28
2022-12-17T02:33:45.291Z,0.75
2022-12-17T02:39:29.341Z,-1.15
2022-12-17T02:45:10.418Z,0.33
2022-12-17T02:50:50.801Z,1.29
2022-12-17T02:56:32.113Z,1.28
2022-12-17T03:02:12.703Z,-0.65
2022-12-17T03:07:54.425Z,0.31
2022-12-17T03:13:42.209Z,0.90
2022-12-17T03:19:23.531Z,1.46
2022-12-17T03:25:04.220Z,1.93
2022-12-17T03:30:48.879Z,0.64
2022-12-17T03:36:30.322Z,-0.90
2022-12-17T03:42:12.346Z,0.35
2022-12-17T03:47:54.398Z,0.86
2022-12-17T03:53:36.246Z,0.96
2022-12-17T03:59:17.166Z,0.96
2022-12-17T04:04:57.915Z,-0.76
2022-12-17T04:10:38.757Z,-0.27
2022-12-17T04:16:19.951Z,0.69
2022-12-17T04:21:57.767Z,1.13
2022-12-17T04:27:35.389Z,-0.21
2022-12-17T04:33:16.375Z,-1.38
2022-12-17T04:38:57.029Z,0.14
2022-12-17T04:44:37.739Z,0.90
2022-12-17T04:50:19.597Z,1.16
2022-12-17T04:56:00.843Z,-0.50
2022-12-17T05:01:42.053Z,-0.11
2022-12-17T05:07:23.134Z,0.98
2022-12-17T05:13:03.870Z,1.34
2022-12-17T05:18:44.536Z,0.61
2022-12-17T05:24:26.291Z,-1.22
2022-12-17T05:30:07.525Z,0.28
2022-12-17T05:35:49.325Z,1.08
2022-12-17T05:41:30.133Z,1.48
2022-12-17T05:47:10.845Z,0.77
2022-12-17T05:52:51.558Z,-1.26
2022-12-17T05:58:32.484Z,0.07
2022-12-17T06:04:13.685Z,1.39
2022-12-17T06:09:55.597Z,1.71
2022-12-17T06:15:36.181Z,-0.29
2022-12-17T06:21:16.847Z,-0.00
2022-12-17T06:26:57.657Z,0.84
2022-12-17T06:32:38.675Z,1.09
2022-12-17T06:38:20.875Z,1.33
2022-12-17T06:44:02.586Z,1.43
2022-12-17T06:49:43.121Z,-0.07
2022-12-17T06:55:24.756Z,-0.07
2022-12-17T07:01:05.590Z,1.04
2022-12-17T07:06:46.960Z,1.43
2022-12-17T07:12:27.682Z,1.74
2022-12-17T07:18:14.028Z,0.37
2022-12-17T07:23:55.352Z,-0.32
2022-12-17T07:29:36.945Z,1.26
2022-12-17T07:35:17.523Z,1.85
2022-12-17T07:40:58.435Z,1.81
2022-12-17T07:46:39.902Z,-0.27
2022-12-17T07:52:21.407Z,0.07
2022-12-17T07:58:02.135Z,1.29
2022-12-17T08:03:42.937Z,1.68
2022-12-17T08:09:24.062Z,1.96
2022-12-17T08:15:04.767Z,2.07
2022-12-17T08:20:45.921Z,2.04
2022-12-17T08:26:28.190Z,2.11
2022-12-17T08:32:15.866Z,2.14
2022-12-17T08:37:56.788Z,0.18
2022-12-17T08:43:37.684Z,0.86
2022-12-17T08:49:18.791Z,1.87
2022-12-17T08:55:00.447Z,2.05
2022-12-17T09:00:44.642Z,2.22
2022-12-17T09:06:25.568Z,2.19
2022-12-17T09:12:06.996Z,2.11
2022-12-17T09:17:50.281Z,2.11
2022-12-17T09:23:33.650Z,2.31
2022-12-17T09:29:14.940Z,2.42
2022-12-17T09:34:56.579Z,2.55
2022-12-17T09:40:41.379Z,2.43
2022-12-17T09:46:24.359Z,2.53
2022-12-17T09:52:13.463Z,2.66
2022-12-17T09:57:55.008Z,2.96
2022-12-17T10:03:37.847Z,2.50
2022-12-17T10:09:19.550Z,0.79
2022-12-17T10:15:00.269Z,1.93
2022-12-17T10:20:41.613Z,2.41
2022-12-17T10:26:22.206Z,2.67
2022-12-17T10:32:02.846Z,2.96
2022-12-17T10:37:43.777Z,2.97
2022-12-17T10:43:40.078Z,2.87
2022-12-17T10:49:40.165Z,3.05
2022-12-17T10:55:21.177Z,1.19
2022-12-17T11:01:02.051Z,2.22
2022-12-17T11:06:50.111Z,3.30
2022-12-17T11:12:31.509Z,3.92
2022-12-17T11:18:12.994Z,3.63
2022-12-17T11:23:53.397Z,1.58
2022-12-17T11:29:33.980Z,0.16
2022-12-17T11:35:22.899Z,-0.67
2022-12-17T11:41:05.474Z,-1.14
2022-12-17T11:47:12.979Z,-1.40
2022-12-17T11:52:57.239Z,-0.16
2022-12-17T11:58:49.325Z,2.84
2022-12-17T12:04:40.488Z,4.20
2022-12-17T12:10:22.329Z,4.99
2022-12-17T12:16:04.140Z,5.42
2022-12-17T12:21:50.324Z,4.44
2022-12-17T12:27:43.287Z,1.96
2022-12-17T12:33:26.902Z,0.35
2022-12-17T12:39:10.077Z,-0.40
2022-12-17T12:44:56.664Z,1.80
2022-12-17T12:50:43.286Z,3.32
2022-12-17T12:56:42.543Z,4.00
2022-12-17T13:02:31.723Z,2.31
2022-12-17T13:08:03.310Z,0.44
2022-12-17T13:13:38.006Z,0.01
2022-12-17T13:19:03.417Z,2.14
2022-12-17T13:24:27.938Z,3.66
2022-12-17T13:29:52.880Z,4.24
2022-12-17T13:35:23.410Z,3.41
2022-12-17T13:41:16.513Z,1.22
2022-12-17T13:46:47.283Z,-0.24
2022-12-17T13:52:17.116Z,0.35
2022-12-17T13:57:40.620Z,2.00
2022-12-17T14:03:13.757Z,1.40
2022-12-17T14:08:37.822Z,0.16
2022-12-17T14:14:01.864Z,1.93
2022-12-17T14:19:26.226Z,3.40
2022-12-17T14:24:49.929Z,3.88
2022-12-17T14:30:23.855Z,2.22
2022-12-17T14:35:47.433Z,0.17
2022-12-17T14:41:27.287Z,-0.98
2022-12-17T14:46:50.999Z,-1.70
2022-12-17T14:52:15.267Z,-2.06
2022-12-17T14:57:38.816Z,-1.66
2022-12-17T15:03:03.072Z,1.35
2022-12-17T15:08:27.164Z,3.14
2022-12-17T15:13:56.335Z,4.01
2022-12-17T15:19:21.428Z,4.46
2022-12-17T15:24:48.174Z,4.04
2022-12-17T15:30:14.631Z,1.61
2022-12-17T15:35:38.831Z,-0.27
2022-12-17T15:41:24.048Z,0.11
2022-12-17T15:47:03.659Z,1.99
2022-12-17T15:52:27.740Z,1.27
2022-12-17T15:57:51.835Z,-0.52
2022-12-17T16:03:15.683Z,-0.16
2022-12-17T16:08:40.619Z,1.69
2022-12-17T16:14:05.810Z,1.41
2022-12-17T16:19:30.119Z,-0.55
2022-12-17T16:24:53.644Z,-0.32
2022-12-17T16:30:17.307Z,1.46
2022-12-17T16:35:41.250Z,1.93
2022-12-17T16:41:05.804Z,0.29
2022-12-17T16:46:34.553Z,-1.15
2022-12-17T16:51:59.839Z,0.03
2022-12-17T16:57:24.064Z,2.29
2022-12-17T17:02:53.079Z,3.13
2022-12-17T17:08:17.310Z,3.92
2022-12-17T17:13:41.822Z,4.37
2022-12-17T17:19:07.772Z,3.48
2022-12-17T17:24:32.405Z,0.96
2022-12-17T17:30:01.379Z,-0.58
2022-12-17T17:35:27.338Z,-1.58
2022-12-17T17:40:50.899Z,-2.20
2022-12-17T17:46:19.503Z,-2.61
2022-12-17T17:57:28.583Z,-2.40
2022-12-17T18:02:52.599Z,0.40
2022-12-17T18:08:16.678Z,2.22
2022-12-17T18:13:58.529Z,3.30
2022-12-17T18:19:23.101Z,3.68
2022-12-17T18:24:47.192Z,3.84
2022-12-17T18:30:11.922Z,3.94
2022-12-17T18:35:35.466Z,2.03
2022-12-17T18:40:59.548Z,0.01
2022-12-17T18:46:23.817Z,-1.26
2022-12-17T18:51:48.881Z,-2.03
2022-12-17T18:57:13.341Z,-1.39
2022-12-17T19:02:38.869Z,1.22
2022-12-17T19:08:07.336Z,2.44
2022-12-17T19:13:41.605Z,2.53
2022-12-17T19:19:21.936Z,0.49
2022-12-17T19:24:51.650Z,-1.14
2022-12-17T19:30:17.598Z,-1.93
2022-12-17T19:35:45.718Z,-0.16
2022-12-17T19:41:28.034Z,1.83
2022-12-17T19:46:52.476Z,2.67
2022-12-17T19:52:16.696Z,2.63
2022-12-17T19:57:40.563Z,0.44
2022-12-17T20:03:05.141Z,-1.08
2022-12-17T20:08:29.860Z,0.41
2022-12-17T20:13:55.049Z,1.90
2022-12-17T20:19:20.547Z,2.25
2022-12-17T20:24:44.978Z,0.33
2022-12-17T20:30:08.846Z,-0.27
2022-12-17T20:35:33.186Z,1.43
2022-12-17T20:40:58.160Z,2.16
2022-12-17T20:46:22.278Z,2.47
2022-12-17T20:51:45.865Z,0.96
2022-12-17T20:57:10.085Z,-0.93
2022-12-17T21:02:34.273Z,-1.58
2022-12-17T21:07:58.374Z,0.54
2022-12-17T21:13:32.690Z,1.92
2022-12-17T21:18:57.052Z,2.58
2022-12-17T21:24:20.935Z,1.98
2022-12-17T21:29:44.795Z,-0.23
2022-12-17T21:35:09.192Z,-1.45
2022-12-17T21:40:34.008Z,-1.77
2022-12-17T21:45:59.304Z,0.24
2022-12-17T21:51:23.368Z,1.49
2022-12-17T21:56:47.683Z,2.30
2022-12-17T22:02:11.994Z,2.28
2022-12-17T22:07:47.780Z,0.21
2022-12-17T22:13:33.054Z,-1.40
2022-12-17T22:18:57.177Z,-2.39
2022-12-17T22:24:22.341Z,-2.18
2022-12-17T22:30:03.755Z,0.35
2022-12-17T22:38:09.011Z,2.12
2022-12-17T22:44:34.958Z,3.00
2022-12-17T22:47:19.972Z,3.75
2022-12-17T22:52:44.072Z,4.13
2022-12-17T22:58:08.157Z,2.57
2022-12-17T23:03:32.228Z,0.55
2022-12-17T23:08:56.235Z,-0.93
2022-12-17T23:14:20.691Z,-1.99
2022-12-17T23:19:44.918Z,-2.61
2022-12-17T23:25:09.846Z,-3.02
2022-12-17T23:30:33.428Z,-3.28
2022-12-17T23:36:04.888Z,-3.46
2022-12-17T23:41:30.204Z,-3.56
2022-12-17T23:46:54.252Z,-3.40
2022-12-17T23:52:18.583Z,-0.57
2022-12-17T23:57:42.469Z,1.86
